createdAt,value
2022-09-24T00:02:20.725Z,9.23
2022-09-24T00:06:23.682Z,9.29
2022-09-24T00:10:25.602Z,9.28
2022-09-24T00:14:27.616Z,9.27
2022-09-24T00:18:30.424Z,9.21
2022-09-24T00:22:32.872Z,9.02
2022-09-24T00:26:49.966Z,8.87
2022-09-24T00:30:52.467Z,8.91
2022-09-24T00:34:54.973Z,9.00
2022-09-24T00:38:58.786Z,8.92
2022-09-24T00:43:01.314Z,8.80
2022-09-24T00:47:03.376Z,8.82
2022-09-24T00:51:06.784Z,8.94
2022-09-24T00:55:09.708Z,8.94
2022-09-24T00:59:17.395Z,8.93
2022-09-24T01:03:25.591Z,8.82
2022-09-24T01:07:27.570Z,8.84
2022-09-24T01:12:01.856Z,8.81
2022-09-24T01:16:16.093Z,8.88
2022-09-24T01:20:37.266Z,8.90
2022-09-24T01:24:42.314Z,8.80
2022-09-24T01:28:56.688Z,8.65
2022-09-24T01:33:04.155Z,8.65
2022-09-24T01:37:06.762Z,8.65
2022-09-24T01:41:12.220Z,8.45
2022-09-24T01:45:16.493Z,8.48
2022-09-24T01:49:18.516Z,8.50
2022-09-24T01:53:25.589Z,8.51
2022-09-24T01:57:38.029Z,8.54
2022-09-24T02:02:11.469Z,8.66
2022-09-24T02:06:24.987Z,8.59
2022-09-24T02:10:30.850Z,8.53
2022-09-24T02:14:40.288Z,8.56
2022-09-24T02:18:48.157Z,8.49
2022-09-24T02:22:51.837Z,8.44
2022-09-24T02:26:57.920Z,8.35
2022-09-24T02:31:28.395Z,8.34
2022-09-24T02:35:30.991Z,8.23
2022-09-24T02:39:32.977Z,8.18
2022-09-24T02:43:36.410Z,8.23
2022-09-24T02:47:38.959Z,8.20
2022-09-24T02:51:42.609Z,8.17
2022-09-24T02:55:44.721Z,8.01
2022-09-24T02:59:47.146Z,7.96
2022-09-24T03:03:49.228Z,7.96
2022-09-24T03:07:51.142Z,7.94
2022-09-24T03:11:53.105Z,7.99
2022-09-24T03:15:55.232Z,7.88
2022-09-24T03:19:57.323Z,7.72
2022-09-24T03:24:00.259Z,7.69
2022-09-24T03:28:02.346Z,7.73
2022-09-24T03:32:04.279Z,7.85
2022-09-24T03:36:10.875Z,7.95
2022-09-24T03:40:13.308Z,8.01
2022-09-24T03:44:15.252Z,7.84
2022-09-24T03:48:18.497Z,7.70
2022-09-24T03:52:20.563Z,7.78
2022-09-24T03:56:22.603Z,7.75
2022-09-24T04:00:24.618Z,7.80
2022-09-24T04:04:28.096Z,7.67
2022-09-24T04:08:31.596Z,7.73
2022-09-24T04:12:33.559Z,7.86
2022-09-24T04:16:36.411Z,7.93
2022-09-24T04:20:38.551Z,7.94
2022-09-24T04:24:40.595Z,8.03
2022-09-24T04:28:42.628Z,8.14
2022-09-24T04:32:45.072Z,8.15
2022-09-24T04:36:47.029Z,8.15
2022-09-24T04:40:49.545Z,8.09
2022-09-24T04:44:55.855Z,8.16
2022-09-24T04:48:58.427Z,8.11
2022-09-24T04:53:01.259Z,8.09
2022-09-24T04:57:03.227Z,7.99
2022-09-24T05:01:05.278Z,7.75
2022-09-24T05:05:07.671Z,7.74
2022-09-24T05:09:12.535Z,7.75
2022-09-24T05:13:14.946Z,7.82
2022-09-24T05:17:17.028Z,7.87
2022-09-24T05:21:19.153Z,7.83
2022-09-24T05:25:22.313Z,7.87
2022-09-24T05:29:24.564Z,7.77
2022-09-24T05:33:27.039Z,7.63
2022-09-24T05:37:29.745Z,7.75
2022-09-24T05:41:34.878Z,8.00
2022-09-24T05:45:36.876Z,8.25
2022-09-24T05:49:39.611Z,8.50
2022-09-24T05:53:41.674Z,8.64
2022-09-24T05:57:44.251Z,8.72
2022-09-24T06:01:46.237Z,9.09
2022-09-24T06:05:50.198Z,9.49
2022-09-24T06:09:52.223Z,9.86
2022-09-24T06:13:54.111Z,10.15
2022-09-24T06:17:56.119Z,10.39
2022-09-24T06:21:58.413Z,10.62
2022-09-24T06:26:00.848Z,10.83
2022-09-24T06:30:03.111Z,10.98
2022-09-24T06:34:05.409Z,11.07
2022-09-24T06:38:10.661Z,11.12
2022-09-24T06:42:12.702Z,11.13
2022-09-24T06:46:15.784Z,11.28
2022-09-24T06:50:18.472Z,11.44
2022-09-24T06:54:20.817Z,11.57
2022-09-24T06:58:23.805Z,11.70
2022-09-24T07:02:25.965Z,12.04
2022-09-24T07:06:47.968Z,12.39
2022-09-24T07:10:49.970Z,12.76
2022-09-24T07:14:51.949Z,13.00
2022-09-24T07:18:53.905Z,13.29
2022-09-24T07:22:56.826Z,13.54
2022-09-24T07:26:58.849Z,13.76
2022-09-24T07:31:00.909Z,13.95
2022-09-24T07:35:03.284Z,14.10
2022-09-24T07:39:05.596Z,14.42
2022-09-24T07:43:12.425Z,14.71
2022-09-24T07:47:16.327Z,15.15
2022-09-24T07:51:18.299Z,15.46
2022-09-24T07:55:24.621Z,15.63
2022-09-24T07:59:26.967Z,15.84
2022-09-24T08:03:29.170Z,16.07
2022-09-24T08:07:31.185Z,16.26
2022-09-24T08:11:33.879Z,16.22
2022-09-24T08:15:35.900Z,16.31
2022-09-24T08:19:39.083Z,16.26
2022-09-24T08:23:43.122Z,16.42
2022-09-24T08:27:45.154Z,16.63
2022-09-24T08:31:47.146Z,17.03
2022-09-24T08:35:49.156Z,17.40
2022-09-24T08:39:51.505Z,17.73
2022-09-24T08:44:05.937Z,17.99
2022-09-24T08:48:26.666Z,18.10
2022-09-24T08:52:46.191Z,18.27
2022-09-24T08:56:48.205Z,18.47
2022-09-24T09:01:11.677Z,18.52
2022-09-24T09:05:32.588Z,19.06
2022-09-24T09:09:54.250Z,19.16
2022-09-24T09:14:22.642Z,19.54
2022-09-24T09:18:41.513Z,19.40
2022-09-24T09:22:48.008Z,19.97
2022-09-24T09:26:56.784Z,20.24
2022-09-24T09:31:13.008Z,20.38
2022-09-24T09:35:47.989Z,20.64
2022-09-24T09:40:11.766Z,20.91
2022-09-24T09:44:30.355Z,21.06
2022-09-24T09:49:02.135Z,20.60
2022-09-24T09:53:05.662Z,20.88
2022-09-24T09:57:14.490Z,21.16
2022-09-24T10:01:20.327Z,21.50
2022-09-24T10:05:27.520Z,21.98
2022-09-24T10:09:29.663Z,22.34
2022-09-24T10:13:32.331Z,22.34
2022-09-24T10:17:37.712Z,22.80
2022-09-24T10:21:39.730Z,23.22
2022-09-24T10:25:51.437Z,23.47
2022-09-24T10:30:14.331Z,23.51
2022-09-24T10:34:28.203Z,23.28
2022-09-24T10:38:32.112Z,23.12
2022-09-24T10:42:36.165Z,22.75
2022-09-24T10:46:46.880Z,22.37
2022-09-24T10:51:11.898Z,22.12
2022-09-24T10:55:22.004Z,21.73
2022-09-24T10:59:42.543Z,21.32
2022-09-24T11:04:25.840Z,21.06
2022-09-24T11:08:57.055Z,20.84
2022-09-24T11:13:31.065Z,20.69
2022-09-24T11:17:35.081Z,20.41
2022-09-24T11:21:57.860Z,20.10
2022-09-24T11:26:19.666Z,20.02
2022-09-24T11:30:38.334Z,19.95
2022-09-24T11:34:47.125Z,20.09
2022-09-24T11:39:33.255Z,20.12
2022-09-24T11:43:50.592Z,20.18
2022-09-24T11:48:20.430Z,20.50
2022-09-24T11:52:35.233Z,20.65
2022-09-24T11:56:44.567Z,20.57
2022-09-24T12:01:13.955Z,20.33
2022-09-24T12:05:42.070Z,20.28
2022-09-24T12:10:29.872Z,20.21
2022-09-24T12:14:51.641Z,20.07
2022-09-24T12:19:12.442Z,19.99
2022-09-24T12:23:19.753Z,19.94
2022-09-24T12:27:28.811Z,19.71
2022-09-24T12:32:07.759Z,19.59
2022-09-24T12:36:23.206Z,19.36
2022-09-24T12:40:51.513Z,18.94
2022-09-24T12:44:58.698Z,18.61
2022-09-24T12:49:01.689Z,18.30
2022-09-24T12:53:03.783Z,18.42
2022-09-24T13:03:41.978Z,18.58
2022-09-24T13:07:56.102Z,18.34
2022-09-24T13:18:11.204Z,18.05
2022-09-24T13:22:25.770Z,18.10
2022-09-24T14:16:15.021Z,16.63
2022-09-24T14:20:17.455Z,16.48
2022-09-24T14:24:24.435Z,16.29
2022-09-24T14:28:26.737Z,16.17
2022-09-24T14:32:32.343Z,15.96
2022-09-24T14:36:36.297Z,15.98
2022-09-24T14:40:52.840Z,15.88
2022-09-24T14:44:56.211Z,15.79
2022-09-24T14:49:06.886Z,15.91
2022-09-24T14:53:19.327Z,15.99
2022-09-24T14:57:25.515Z,16.06
2022-09-24T15:01:33.792Z,16.13
2022-09-24T15:05:36.359Z,16.17
2022-09-24T15:09:38.345Z,16.13
2022-09-24T15:13:40.268Z,16.08
2022-09-24T15:17:42.698Z,16.11
2022-09-24T15:21:45.367Z,16.07
2022-09-24T15:25:47.338Z,16.14
2022-09-24T15:29:50.616Z,16.16
2022-09-24T15:34:01.035Z,16.16
2022-09-24T15:38:03.032Z,16.05
2022-09-24T15:42:05.230Z,16.16
2022-09-24T15:46:07.203Z,16.17
2022-09-24T15:50:10.947Z,16.13
2022-09-24T15:54:13.082Z,16.03
2022-09-24T15:58:19.468Z,15.94
2022-09-24T16:02:23.659Z,15.93
2022-09-24T16:06:25.710Z,15.94
2022-09-24T16:10:27.840Z,16.00
2022-09-24T16:14:29.923Z,15.91
2022-09-24T16:18:31.887Z,15.98
2022-09-24T16:22:34.479Z,16.02
2022-09-24T16:26:37.424Z,16.04
2022-09-24T16:30:39.575Z,16.04
2022-09-24T16:34:41.556Z,15.90
2022-09-24T16:44:34.120Z,15.20
2022-09-24T16:48:36.986Z,15.11
2022-09-24T16:52:38.964Z,15.13
2022-09-24T16:56:41.215Z,15.12
2022-09-24T17:06:57.726Z,15.10
2022-09-24T17:11:00.608Z,15.16
2022-09-24T17:15:03.051Z,15.23
2022-09-24T17:25:30.655Z,15.20
2022-09-24T17:34:57.959Z,15.16
2022-09-24T17:39:01.139Z,15.20
2022-09-24T17:43:04.260Z,15.24
2022-09-24T17:47:07.720Z,15.24
2022-09-24T18:02:35.730Z,15.14
2022-09-24T18:07:19.432Z,15.16
2022-09-24T18:16:57.588Z,15.06
2022-09-24T18:21:04.421Z,14.92
2022-09-24T18:25:07.319Z,14.85
2022-09-24T18:29:15.659Z,14.82
2022-09-24T18:33:17.742Z,14.82
2022-09-24T18:37:20.097Z,14.72
2022-09-24T18:46:57.383Z,14.72
2022-09-24T18:57:12.124Z,14.82
2022-09-24T19:01:16.163Z,14.80
2022-09-24T19:05:18.237Z,14.77
2022-09-24T19:09:20.554Z,14.88
2022-09-24T20:34:09.369Z,15.09
2022-09-24T20:38:12.325Z,15.15
2022-09-24T20:42:14.542Z,15.27
2022-09-24T20:46:19.622Z,15.40
2022-09-24T20:50:21.715Z,15.46
2022-09-24T20:54:24.103Z,15.57
2022-09-24T20:58:26.375Z,15.63
2022-09-24T21:02:28.357Z,15.69
2022-09-24T21:06:30.642Z,15.73
2022-09-24T21:10:35.898Z,15.73
2022-09-24T21:14:38.325Z,15.76
2022-09-24T21:18:44.434Z,15.86
2022-09-24T21:22:46.733Z,15.78
2022-09-24T21:26:49.107Z,15.65
2022-09-24T21:30:59.869Z,15.72
2022-09-24T21:35:02.008Z,15.74
2022-09-24T21:39:14.538Z,15.72
2022-09-24T21:43:16.589Z,15.65
2022-09-24T21:47:18.608Z,15.71
2022-09-24T21:51:22.780Z,15.69
2022-09-24T21:55:25.675Z,15.65
2022-09-24T21:59:46.472Z,15.55
2022-09-24T22:04:44.463Z,15.54
2022-09-24T22:27:01.710Z,15.22
2022-09-24T22:31:09.920Z,15.26
2022-09-24T22:41:26.263Z,15.21
2022-09-24T22:45:28.188Z,15.16
2022-09-24T22:49:31.412Z,15.12
2022-09-24T22:53:38.849Z,15.07
2022-09-24T22:57:40.994Z,15.06
2022-09-24T23:01:44.420Z,15.05
2022-09-24T23:05:46.754Z,15.02
2022-09-24T23:09:49.148Z,15.01
2022-09-24T23:13:57.266Z,14.99
2022-09-24T23:17:59.162Z,15.00
2022-09-24T23:22:01.095Z,14.99
2022-09-24T23:26:07.121Z,14.92
2022-09-24T23:30:09.932Z,14.97
2022-09-24T23:34:13.751Z,14.93
2022-09-24T23:38:16.511Z,14.97
2022-09-24T23:42:18.383Z,14.98
2022-09-24T23:46:20.913Z,15.01
2022-09-24T23:50:22.922Z,14.98
2022-09-24T23:54:24.957Z,15.01
2022-09-24T23:58:27.405Z,15.03
